createdAt,value
2023-01-17T00:01:48.103Z,5.04
2023-01-17T00:04:52.186Z,5.04
2023-01-17T00:07:55.904Z,5.02
2023-01-17T00:10:41.553Z,4.97
2023-01-17T00:13:27.093Z,4.93
2023-01-17T00:16:12.248Z,4.88
2023-01-17T00:19:15.996Z,4.85
2023-01-17T00:22:19.760Z,4.83
2023-01-17T00:25:24.163Z,4.81
2023-01-17T00:28:09.618Z,4.78
2023-01-17T00:30:55.340Z,4.76
2023-01-17T00:33:40.627Z,4.71
2023-01-17T00:36:26.116Z,4.65
2023-01-17T00:39:11.539Z,4.61
2023-01-17T00:41:56.695Z,4.58
2023-01-17T00:45:00.917Z,4.55
2023-01-17T00:48:05.241Z,4.55
2023-01-17T00:51:09.056Z,4.56
2023-01-17T00:54:12.818Z,4.55
2023-01-17T00:57:16.707Z,4.52
2023-01-17T01:00:20.580Z,4.51
2023-01-17T01:03:29.029Z,4.47
2023-01-17T01:06:33.103Z,4.45
2023-01-17T01:09:36.945Z,4.48
2023-01-17T01:12:40.820Z,4.49
2023-01-17T01:15:44.656Z,4.45
2023-01-17T01:18:48.451Z,4.53
2023-01-17T01:21:52.747Z,4.61
2023-01-17T01:24:56.555Z,4.65
2023-01-17T01:28:00.467Z,4.61
2023-01-17T01:31:04.175Z,4.58
2023-01-17T01:33:53.578Z,4.55
2023-01-17T01:36:38.943Z,4.53
2023-01-17T01:39:24.390Z,4.55
2023-01-17T01:42:15.005Z,4.58
2023-01-17T01:45:00.247Z,4.57
2023-01-17T01:47:47.552Z,4.57
2023-01-17T01:50:36.084Z,4.59
2023-01-17T01:53:21.717Z,4.64
2023-01-17T01:56:12.397Z,4.62
2023-01-17T01:58:59.489Z,4.62
2023-01-17T02:01:47.648Z,4.60
2023-01-17T02:04:33.454Z,4.61
2023-01-17T02:07:23.922Z,4.61
2023-01-17T02:10:09.867Z,4.62
2023-01-17T02:12:55.833Z,4.63
2023-01-17T02:16:29.994Z,4.62
2023-01-17T02:19:42.790Z,4.66
2023-01-17T02:22:46.550Z,4.64
2023-01-17T02:26:10.250Z,4.60
2023-01-17T02:29:20.208Z,4.62
2023-01-17T02:32:11.475Z,4.66
2023-01-17T02:35:05.332Z,4.69
2023-01-17T02:38:07.712Z,4.71
2023-01-17T02:40:57.959Z,4.73
2023-01-17T02:43:43.511Z,4.76
2023-01-17T02:46:28.846Z,4.77
2023-01-17T02:49:16.823Z,4.82
2023-01-17T02:52:12.382Z,4.86
2023-01-17T02:55:29.589Z,4.94
2023-01-17T02:58:19.424Z,5.00
2023-01-17T03:01:17.622Z,5.04
2023-01-17T03:04:08.518Z,5.08
2023-01-17T03:06:58.510Z,5.11
2023-01-17T03:09:47.023Z,5.14
2023-01-17T03:12:35.570Z,5.19
2023-01-17T03:15:21.084Z,5.18
2023-01-17T03:18:10.573Z,5.18
2023-01-17T03:20:55.786Z,5.15
2023-01-17T03:23:41.251Z,5.13
2023-01-17T03:26:26.553Z,5.15
2023-01-17T03:29:11.792Z,5.20
2023-01-17T03:31:56.998Z,5.22
2023-01-17T03:34:42.193Z,5.27
2023-01-17T03:37:27.630Z,5.32
2023-01-17T03:40:13.343Z,5.36
2023-01-17T03:42:58.644Z,5.35
2023-01-17T03:45:44.314Z,5.38
2023-01-17T03:48:29.677Z,5.41
2023-01-17T03:51:15.496Z,5.39
2023-01-17T03:54:00.901Z,5.38
2023-01-17T03:56:46.065Z,5.42
2023-01-17T03:59:33.916Z,5.46
2023-01-17T04:02:19.217Z,5.43
2023-01-17T04:05:05.212Z,5.47
2023-01-17T04:07:51.783Z,5.49
2023-01-17T04:10:37.132Z,5.50
2023-01-17T04:13:22.369Z,5.54
2023-01-17T04:16:13.842Z,5.55
2023-01-17T04:18:58.890Z,5.56
2023-01-17T04:21:44.099Z,5.59
2023-01-17T04:24:29.275Z,5.64
2023-01-17T04:27:14.518Z,5.69
2023-01-17T04:29:59.825Z,5.67
2023-01-17T04:32:45.361Z,5.65
2023-01-17T04:35:31.687Z,5.63
2023-01-17T04:38:17.133Z,5.61
2023-01-17T04:41:02.567Z,5.58
2023-01-17T04:43:47.975Z,5.61
2023-01-17T04:46:33.511Z,5.61
2023-01-17T04:49:18.768Z,5.62
2023-01-17T04:52:04.220Z,5.64
2023-01-17T04:54:49.576Z,5.67
2023-01-17T04:57:34.782Z,5.67
2023-01-17T05:00:22.207Z,5.64
2023-01-17T05:03:08.671Z,5.60
2023-01-17T05:05:54.036Z,5.61
2023-01-17T05:08:39.484Z,5.60
2023-01-17T05:11:25.039Z,5.60
2023-01-17T05:14:10.782Z,5.59
2023-01-17T05:16:56.720Z,5.59
2023-01-17T05:19:41.874Z,5.59
2023-01-17T05:22:27.228Z,5.59
2023-01-17T05:25:13.182Z,5.58
2023-01-17T05:28:02.304Z,5.59
2023-01-17T05:30:47.617Z,5.59
2023-01-17T05:33:32.834Z,5.58
2023-01-17T05:36:21.278Z,5.55
2023-01-17T05:39:06.433Z,5.57
2023-01-17T05:41:52.116Z,5.55
2023-01-17T05:44:38.625Z,5.54
2023-01-17T05:47:23.751Z,5.52
2023-01-17T05:50:10.141Z,5.54
2023-01-17T05:53:04.045Z,5.52
2023-01-17T05:55:49.649Z,5.54
2023-01-17T05:58:34.788Z,5.53
2023-01-17T06:01:20.226Z,5.52
2023-01-17T06:04:05.836Z,5.54
2023-01-17T06:06:51.241Z,5.55
2023-01-17T06:09:36.599Z,5.58
2023-01-17T06:12:22.192Z,5.59
2023-01-17T06:15:08.226Z,5.58
2023-01-17T06:17:53.603Z,5.56
2023-01-17T06:20:39.593Z,5.59
2023-01-17T06:23:25.364Z,5.59
2023-01-17T06:26:11.020Z,5.59
2023-01-17T06:28:56.107Z,5.54
2023-01-17T06:31:41.494Z,5.54
2023-01-17T06:34:26.993Z,5.55
2023-01-17T06:37:12.352Z,5.56
2023-01-17T06:39:57.836Z,5.55
2023-01-17T06:42:43.604Z,5.54
2023-01-17T06:45:34.836Z,5.56
2023-01-17T06:48:20.044Z,5.55
2023-01-17T06:51:05.786Z,5.52
2023-01-17T06:53:51.001Z,5.54
2023-01-17T06:56:36.749Z,5.51
2023-01-17T06:59:21.924Z,5.50
2023-01-17T07:02:10.358Z,5.47
2023-01-17T07:04:55.551Z,5.46
2023-01-17T07:07:40.895Z,5.42
2023-01-17T07:10:26.340Z,5.42
2023-01-17T07:13:12.618Z,5.41
2023-01-17T07:16:00.790Z,5.44
2023-01-17T07:18:45.995Z,5.44
2023-01-17T07:21:31.355Z,5.45
2023-01-17T07:24:16.726Z,5.48
2023-01-17T07:27:01.954Z,5.49
2023-01-17T07:29:47.484Z,5.47
2023-01-17T07:32:33.105Z,5.45
2023-01-17T07:35:19.082Z,5.48
2023-01-17T07:38:07.744Z,5.47
2023-01-17T07:40:58.140Z,5.50
2023-01-17T07:43:43.522Z,5.48
2023-01-17T07:46:28.768Z,5.45
2023-01-17T07:49:14.583Z,5.43
2023-01-17T07:52:00.005Z,5.45
2023-01-17T07:54:45.361Z,5.38
2023-01-17T07:57:32.512Z,5.39
2023-01-17T08:00:18.112Z,5.42
2023-01-17T08:03:03.755Z,5.46
2023-01-17T08:05:57.513Z,5.47
2023-01-17T08:08:43.170Z,5.49
2023-01-17T08:11:28.364Z,5.52
2023-01-17T08:14:13.637Z,5.55
2023-01-17T08:17:14.400Z,5.56
2023-01-17T08:20:00.335Z,5.56
2023-01-17T08:22:45.972Z,5.58
2023-01-17T08:25:33.023Z,5.60
2023-01-17T08:28:19.772Z,5.56
2023-01-17T08:31:09.605Z,5.59
2023-01-17T08:33:54.578Z,5.60
2023-01-17T08:36:42.730Z,5.72
2023-01-17T08:39:28.669Z,5.74
2023-01-17T08:42:13.875Z,5.78
2023-01-17T08:44:59.068Z,5.85
2023-01-17T08:47:44.903Z,5.87
2023-01-17T08:50:30.237Z,5.89
2023-01-17T08:53:16.400Z,5.84
2023-01-17T08:56:03.503Z,5.82
2023-01-17T08:58:48.491Z,5.82
2023-01-17T09:01:40.540Z,5.78
2023-01-17T09:04:26.122Z,5.79
2023-01-17T09:07:11.203Z,5.75
2023-01-17T09:09:56.723Z,5.70
2023-01-17T09:12:42.066Z,5.77
2023-01-17T09:15:27.680Z,5.81
2023-01-17T09:18:12.729Z,5.75
2023-01-17T09:21:00.936Z,5.71
2023-01-17T09:23:46.738Z,5.74
2023-01-17T09:26:32.289Z,5.72
2023-01-17T09:29:18.658Z,5.75
2023-01-17T09:32:04.029Z,5.84
2023-01-17T09:34:49.420Z,5.90
2023-01-17T09:37:35.371Z,5.91
2023-01-17T09:40:25.161Z,5.96
2023-01-17T09:43:25.667Z,5.97
2023-01-17T09:46:22.634Z,5.99
2023-01-17T09:49:26.882Z,6.02
2023-01-17T09:52:16.278Z,6.08
2023-01-17T09:55:02.610Z,6.17
2023-01-17T09:58:00.401Z,6.19
2023-01-17T10:00:58.250Z,6.19
2023-01-17T10:03:48.587Z,6.15
2023-01-17T10:06:45.923Z,6.20
2023-01-17T10:10:00.551Z,6.22
2023-01-17T10:13:19.931Z,6.19
2023-01-17T10:16:24.616Z,6.22
2023-01-17T10:19:31.509Z,6.30
2023-01-17T10:22:37.567Z,6.35
2023-01-17T10:25:30.084Z,6.35
2023-01-17T10:28:17.337Z,6.24
2023-01-17T10:31:13.643Z,6.14
2023-01-17T10:34:11.063Z,6.07
2023-01-17T10:37:03.424Z,6.12
2023-01-17T10:39:50.374Z,6.16
2023-01-17T10:42:50.714Z,6.13
2023-01-17T10:45:52.827Z,6.10
2023-01-17T10:48:47.356Z,5.92
2023-01-17T10:51:49.702Z,5.87
2023-01-17T10:55:05.052Z,5.73
2023-01-17T10:57:52.363Z,5.69
2023-01-17T11:00:44.351Z,5.69
2023-01-17T11:03:29.454Z,5.65
2023-01-17T11:06:27.770Z,5.70
2023-01-17T11:09:14.014Z,5.67
2023-01-17T11:11:59.507Z,5.63
2023-01-17T11:15:05.702Z,5.60
2023-01-17T11:18:01.450Z,5.57
2023-01-17T11:20:48.436Z,5.55
2023-01-17T11:23:34.209Z,5.43
2023-01-17T11:26:28.706Z,5.27
2023-01-17T11:29:25.567Z,5.16
2023-01-17T11:32:23.556Z,5.14
2023-01-17T11:35:41.880Z,5.15
2023-01-17T11:38:30.062Z,5.13
2023-01-17T11:41:21.123Z,4.78
2023-01-17T11:44:27.005Z,4.40
2023-01-17T11:47:12.227Z,4.34
2023-01-17T11:49:57.712Z,4.43
2023-01-17T11:52:43.274Z,4.58
2023-01-17T11:55:28.529Z,4.76
2023-01-17T11:58:15.214Z,4.97
2023-01-17T12:01:25.414Z,5.08
2023-01-17T12:04:24.730Z,4.99
2023-01-17T12:07:38.072Z,4.94
2023-01-17T12:10:29.799Z,4.99
2023-01-17T12:13:53.095Z,5.06
2023-01-17T12:17:14.216Z,5.25
2023-01-17T12:20:01.485Z,5.49
2023-01-17T12:23:00.747Z,5.59
2023-01-17T12:25:58.132Z,5.67
2023-01-17T12:29:05.385Z,5.73
2023-01-17T12:32:09.481Z,5.78
2023-01-17T12:35:15.387Z,5.78
2023-01-17T12:38:08.918Z,5.76
2023-01-17T12:41:00.933Z,5.74
2023-01-17T12:43:46.460Z,5.76
2023-01-17T12:46:44.039Z,5.79
2023-01-17T12:49:58.041Z,5.75
2023-01-17T12:52:55.589Z,5.75
2023-01-17T12:56:09.020Z,5.75
2023-01-17T12:59:15.719Z,5.71
2023-01-17T13:02:10.785Z,5.74
2023-01-17T13:05:03.016Z,5.64
2023-01-17T13:08:05.259Z,5.66
2023-01-17T13:11:11.888Z,5.66
2023-01-17T13:13:57.882Z,5.66
2023-01-17T13:16:48.648Z,5.73
2023-01-17T13:19:50.292Z,5.74
2023-01-17T13:22:38.505Z,5.69
2023-01-17T13:25:26.960Z,5.71
2023-01-17T13:28:35.848Z,5.82
2023-01-17T13:31:40.454Z,5.75
2023-01-17T13:34:43.604Z,5.57
2023-01-17T13:37:34.189Z,5.50
2023-01-17T13:40:27.951Z,5.42
2023-01-17T13:43:20.082Z,5.38
2023-01-17T13:46:06.642Z,5.44
2023-01-17T13:49:41.639Z,5.46
2023-01-17T13:52:33.201Z,5.43
2023-01-17T13:55:50.753Z,5.39
2023-01-17T13:58:58.269Z,5.41
2023-01-17T14:01:43.549Z,5.43
2023-01-17T14:05:07.358Z,5.44
2023-01-17T14:08:02.993Z,5.57
2023-01-17T14:10:53.338Z,5.73
2023-01-17T14:13:39.638Z,5.80
2023-01-17T14:16:29.544Z,5.82
2023-01-17T14:19:26.497Z,5.74
2023-01-17T14:22:21.022Z,5.65
2023-01-17T14:25:12.433Z,5.62
2023-01-17T14:28:04.150Z,5.64
2023-01-17T14:30:56.242Z,5.67
2023-01-17T14:33:41.885Z,5.67
2023-01-17T14:36:32.359Z,5.65
2023-01-17T14:39:22.450Z,5.53
2023-01-17T14:42:13.374Z,5.46
2023-01-17T14:45:09.174Z,5.42
2023-01-17T14:47:57.452Z,5.39
2023-01-17T14:50:44.123Z,5.35
2023-01-17T14:53:31.346Z,5.28
2023-01-17T14:56:17.673Z,5.26
2023-01-17T14:59:16.758Z,5.23
2023-01-17T15:02:08.202Z,5.22
2023-01-17T15:04:54.873Z,5.21
2023-01-17T15:07:41.721Z,5.21
2023-01-17T15:10:31.473Z,5.19
2023-01-17T15:13:29.754Z,5.16
2023-01-17T15:16:28.163Z,5.13
2023-01-17T15:19:18.109Z,5.10
2023-01-17T15:22:04.872Z,5.09
2023-01-17T15:24:51.562Z,5.05
2023-01-17T15:27:38.592Z,5.04
2023-01-17T15:30:25.242Z,4.99
2023-01-17T15:33:20.992Z,4.98
2023-01-17T15:36:09.851Z,4.99
2023-01-17T15:39:01.629Z,4.95
2023-01-17T15:41:49.644Z,4.92
2023-01-17T15:44:48.879Z,4.89
2023-01-17T15:47:40.302Z,4.87
2023-01-17T15:50:31.859Z,4.84
2023-01-17T15:53:32.512Z,4.83
2023-01-17T15:56:21.162Z,4.80
2023-01-17T15:59:45.423Z,4.81
2023-01-17T16:02:42.777Z,4.80
2023-01-17T16:05:32.835Z,4.81
2023-01-17T16:08:24.068Z,4.80
2023-01-17T16:11:11.616Z,4.81
2023-01-17T16:13:56.636Z,4.81
2023-01-17T16:16:51.047Z,4.80
2023-01-17T16:19:36.369Z,4.79
2023-01-17T16:22:21.938Z,4.72
2023-01-17T16:25:18.117Z,4.71
2023-01-17T16:28:03.807Z,4.67
2023-01-17T16:30:49.276Z,4.65
2023-01-17T16:33:34.498Z,4.64
2023-01-17T16:36:21.067Z,4.62
2023-01-17T16:39:06.739Z,4.58
2023-01-17T16:41:51.916Z,4.57
2023-01-17T16:44:37.331Z,4.51
2023-01-17T16:47:22.685Z,4.52
2023-01-17T16:50:09.418Z,4.51
2023-01-17T16:52:56.090Z,4.47
2023-01-17T16:55:43.240Z,4.49
2023-01-17T16:58:28.327Z,4.48
2023-01-17T17:01:15.834Z,4.44
2023-01-17T17:04:01.065Z,4.42
2023-01-17T17:06:46.623Z,4.40
2023-01-17T17:09:32.021Z,4.37
2023-01-17T17:12:17.459Z,4.32
2023-01-17T17:15:03.247Z,4.31
2023-01-17T17:17:48.579Z,4.30
2023-01-17T17:20:34.036Z,4.28
2023-01-17T17:23:19.547Z,4.25
2023-01-17T17:26:05.272Z,4.21
2023-01-17T17:28:52.647Z,4.17
2023-01-17T17:31:39.422Z,4.18
2023-01-17T17:34:27.564Z,4.17
2023-01-17T17:37:15.983Z,4.15
2023-01-17T17:40:01.819Z,4.12
2023-01-17T17:42:47.062Z,4.11
2023-01-17T17:45:32.290Z,4.09
2023-01-17T17:48:17.288Z,4.08
2023-01-17T17:51:03.913Z,4.08
2023-01-17T17:53:49.169Z,4.07
2023-01-17T17:56:35.385Z,4.05
2023-01-17T17:59:20.507Z,4.01
2023-01-17T18:02:06.620Z,3.98
2023-01-17T18:04:51.793Z,3.99
2023-01-17T18:07:37.406Z,3.99
2023-01-17T18:10:22.474Z,3.95
2023-01-17T18:13:08.430Z,3.91
2023-01-17T18:16:01.720Z,3.89
2023-01-17T18:18:50.572Z,3.88
2023-01-17T18:21:37.507Z,3.86
2023-01-17T18:24:24.113Z,3.85
2023-01-17T18:27:10.434Z,3.83
2023-01-17T18:29:55.600Z,3.85
2023-01-17T18:32:41.860Z,3.82
2023-01-17T18:35:27.359Z,3.84
2023-01-17T18:38:12.675Z,3.82
2023-01-17T18:41:02.661Z,3.82
2023-01-17T18:43:48.221Z,3.79
2023-01-17T18:46:34.375Z,3.76
2023-01-17T18:49:20.334Z,3.77
2023-01-17T18:52:07.894Z,3.79
2023-01-17T18:54:53.270Z,3.77
2023-01-17T18:57:38.754Z,3.74
2023-01-17T19:00:24.218Z,3.75
2023-01-17T19:03:09.369Z,3.75
2023-01-17T19:05:54.908Z,3.73
2023-01-17T19:08:41.375Z,3.71
2023-01-17T19:11:27.567Z,3.70
2023-01-17T19:14:13.165Z,3.68
2023-01-17T19:16:58.297Z,3.67
2023-01-17T19:19:43.796Z,3.65
2023-01-17T19:22:30.626Z,3.67
2023-01-17T19:25:16.334Z,3.66
2023-01-17T19:28:01.941Z,3.62
2023-01-17T19:30:47.556Z,3.62
2023-01-17T19:33:34.906Z,3.60
2023-01-17T19:36:26.597Z,3.60
2023-01-17T19:39:11.789Z,3.57
2023-01-17T19:41:57.321Z,3.61
2023-01-17T19:44:44.696Z,3.63
2023-01-17T19:47:31.013Z,3.61
2023-01-17T19:50:18.598Z,3.61
2023-01-17T19:53:03.955Z,3.53
2023-01-17T19:55:49.297Z,3.52
2023-01-17T19:58:35.318Z,3.50
2023-01-17T20:01:24.492Z,3.50
2023-01-17T20:04:09.887Z,3.54
2023-01-17T20:06:55.336Z,3.50
2023-01-17T20:09:40.636Z,3.50
2023-01-17T20:12:26.155Z,3.52
2023-01-17T20:15:11.419Z,3.50
2023-01-17T20:17:57.054Z,3.49
2023-01-17T20:20:56.275Z,3.47
2023-01-17T20:23:43.434Z,3.51
2023-01-17T20:26:34.725Z,3.45
2023-01-17T20:29:20.181Z,3.42
2023-01-17T20:32:06.795Z,3.41
2023-01-17T20:34:52.264Z,3.37
2023-01-17T20:37:37.744Z,3.33
2023-01-17T20:40:23.161Z,3.30
2023-01-17T20:43:09.969Z,3.31
2023-01-17T20:45:55.976Z,3.34
2023-01-17T20:48:55.120Z,3.37
2023-01-17T20:51:40.918Z,3.39
2023-01-17T20:54:26.582Z,3.38
2023-01-17T20:57:13.761Z,3.36
2023-01-17T20:59:59.007Z,3.38
2023-01-17T21:02:45.222Z,3.37
2023-01-17T21:05:30.476Z,3.36
2023-01-17T21:08:18.499Z,3.38
2023-01-17T21:11:06.062Z,3.42
2023-01-17T21:13:51.815Z,3.44
2023-01-17T21:16:37.312Z,3.37
2023-01-17T21:19:24.969Z,3.32
2023-01-17T21:22:11.131Z,3.26
2023-01-17T21:24:56.449Z,3.24
2023-01-17T21:27:41.943Z,3.20
2023-01-17T21:30:27.114Z,3.17
2023-01-17T21:33:13.169Z,3.19
2023-01-17T21:36:07.821Z,3.20
2023-01-17T21:38:56.936Z,3.19
2023-01-17T21:41:45.646Z,3.17
2023-01-17T21:44:36.345Z,3.15
2023-01-17T21:47:21.773Z,3.16
2023-01-17T21:50:07.498Z,3.12
2023-01-17T21:52:53.006Z,3.10
2023-01-17T21:55:56.904Z,3.07
2023-01-17T21:58:44.966Z,3.01
2023-01-17T22:01:33.212Z,2.99
2023-01-17T22:04:18.475Z,3.02
2023-01-17T22:07:03.583Z,3.00
2023-01-17T22:09:49.196Z,2.97
2023-01-17T22:12:34.532Z,2.96
2023-01-17T22:15:19.962Z,2.98
2023-01-17T22:18:08.252Z,3.00
2023-01-17T22:20:53.625Z,3.02
2023-01-17T22:23:39.497Z,2.99
2023-01-17T22:26:27.735Z,2.89
2023-01-17T22:29:16.901Z,2.89
2023-01-17T22:32:02.607Z,2.95
2023-01-17T22:34:48.415Z,2.98
2023-01-17T22:37:34.823Z,2.99
2023-01-17T22:40:20.722Z,3.00
2023-01-17T22:43:06.256Z,3.00
2023-01-17T22:45:58.925Z,2.98
2023-01-17T22:48:44.875Z,2.94
2023-01-17T22:51:30.123Z,2.91
2023-01-17T22:54:15.310Z,2.89
2023-01-17T22:57:00.388Z,2.77
2023-01-17T22:59:45.768Z,2.69
2023-01-17T23:02:31.018Z,2.59
2023-01-17T23:05:16.632Z,2.55
2023-01-17T23:08:02.400Z,2.55
2023-01-17T23:11:06.242Z,2.55
2023-01-17T23:13:52.847Z,2.57
2023-01-17T23:17:03.268Z,2.61
2023-01-17T23:19:54.416Z,2.66
2023-01-17T23:22:39.958Z,2.67
2023-01-17T23:25:25.165Z,2.65
2023-01-17T23:28:20.516Z,2.65
2023-01-17T23:31:06.409Z,2.63
2023-01-17T23:33:51.732Z,2.59
2023-01-17T23:36:37.189Z,2.55
2023-01-17T23:39:22.704Z,2.53
2023-01-17T23:42:26.262Z,2.49
2023-01-17T23:45:11.617Z,2.51
2023-01-17T23:47:56.865Z,2.52
2023-01-17T23:50:44.335Z,2.53
2023-01-17T23:53:29.744Z,2.54
2023-01-17T23:56:18.798Z,2.51
2023-01-17T23:59:04.339Z,2.52
